Time;durP1;ratioP1;P1;durP2;ratioP2;P2;SDS_P1;SDS_P2;PMS_P1;PMS_P2;Temp;Humidity;BMP_temperature;BMP_pressure;BME280_temperature;BME280_humidity;BME280_pressure;Samples;Min_cycle;Max_cycle;Signal;HPM_P1;HPM_P2
2022/01/24 00:00:07;;;;;;;7.13;4.25;;;;;;;5.35;82.16;103634.66;4994518;28;96892;-36
2022/01/24 00:02:32;;;;;;;5.45;3.05;;;;;;;5.47;81.37;103658.91;4992044;28;101819;-36
2022/01/24 00:04:58;;;;;;;9.52;3.78;;;;;;;5.45;81.40;103655.28;4994549;28;97754;-36
2022/01/24 00:07:24;;;;;;;10.60;3.97;;;;;;;5.43;81.75;103645.44;4994741;28;96496;-36
2022/01/24 00:09:53;;;;;;;11.20;4.20;;;;;;;5.31;81.81;103628.38;4994488;28;96727;-37
2022/01/24 00:12:26;;;;;;;10.18;4.35;;;;;;;5.40;81.77;103649.00;4994150;28;97394;-36
2022/01/24 00:15:05;;;;;;;9.23;3.75;;;;;;;5.31;81.94;103628.38;4993064;28;101077;-36
2022/01/24 00:28:10;;;;;;;6.50;3.45;;;;;;;5.22;81.87;103619.34;4994787;28;96527;-36
2022/01/24 00:30:36;;;;;;;11.23;4.18;;;;;;;5.21;81.70;103606.81;4994878;28;96727;-36
2022/01/24 00:33:02;;;;;;;7.43;4.40;;;;;;;5.22;81.66;103606.81;4997473;28;97324;-36
2022/01/24 00:35:27;;;;;;;7.50;4.05;;;;;;;5.23;81.62;103611.28;4996024;28;99099;-36
2022/01/24 00:37:52;;;;;;;9.48;3.63;;;;;;;5.24;81.85;103618.47;4997889;28;96559;-36
2022/01/24 00:40:18;;;;;;;6.85;3.63;;;;;;;5.26;81.44;103607.72;4997797;28;96834;-36
2022/01/24 00:42:56;;;;;;;14.90;3.25;;;;;;;5.28;81.64;103605.94;4995195;28;118034;-36
2022/01/24 00:45:34;;;;;;;8.60;4.22;;;;;;;5.26;82.17;103611.28;4995755;28;100953;-36
2022/01/24 00:55:59;;;;;;;5.28;3.25;;;;;;;5.23;82.14;103616.66;4997146;28;97043;-36
2022/01/24 00:58:24;;;;;;;5.40;3.88;;;;;;;5.30;82.13;103626.56;4996632;28;111018;-36
2022/01/24 01:00:50;;;;;;;8.70;4.10;;;;;;;5.31;81.94;103628.38;4997032;28;96751;-35
2022/01/24 01:03:17;;;;;;;5.53;3.47;;;;;;;5.31;82.11;103628.38;4996724;28;99427;-36
2022/01/24 01:06:01;;;;;;;9.10;4.75;;;;;;;5.32;80.63;103631.94;4995874;28;99062;-36
2022/01/24 01:19:22;;;;;;;7.32;4.47;;;;;;;5.34;81.70;103627.50;4997408;28;96566;-36
2022/01/24 01:21:47;;;;;;;12.43;5.15;;;;;;;5.28;82.17;103620.28;4996404;28;110370;-36
2022/01/24 01:24:13;;;;;;;12.45;4.65;;;;;;;5.24;81.58;103612.19;4996058;28;119160;-36
2022/01/24 01:26:45;;;;;;;7.57;4.55;;;;;;;5.22;81.61;103613.97;4996738;28;97932;-36
2022/01/24 01:29:17;;;;;;;7.03;4.43;;;;;;;5.19;81.80;103601.41;4996757;28;96433;-36
2022/01/24 01:31:53;;;;;;;;;;;;;;;5.36;82.10;103627.47;4996370;28;96805;-36
2022/01/24 01:37:14;;;;;;;7.93;3.75;;;;;;;5.15;81.98;103610.38;4995663;28;98010;-36
2022/01/24 01:55:43;;;;;;;8.83;4.17;;;;;;;5.28;79.70;103614.00;4995626;28;97834;-36
2022/01/24 01:58:19;;;;;;;15.95;5.53;;;;;;;5.21;80.16;103598.75;4995953;28;97320;-36
2022/01/24 02:00:47;;;;;;;7.53;4.28;;;;;;;5.33;79.65;103614.91;4995200;28;96880;-36
2022/01/24 02:03:13;;;;;;;10.38;5.00;;;;;;;5.25;80.31;103604.13;4994694;28;96754;-36
2022/01/24 02:05:40;;;;;;;12.68;6.30;;;;;;;5.25;80.32;103601.44;4996011;28;97320;-36
2022/01/24 02:08:05;;;;;;;5.43;3.55;;;;;;;5.32;80.15;103621.19;4994649;28;101428;-36
2022/01/24 02:10:36;;;;;;;8.50;4.80;;;;;;;5.21;80.26;103607.69;4996316;28;96544;-36
2022/01/24 02:13:02;;;;;;;12.10;6.15;;;;;;;5.33;80.77;103622.97;4996461;28;96698;-36
2022/01/24 02:18:10;;;;;;;10.43;5.78;;;;;;;5.35;80.97;103618.53;4994238;28;97963;-36
2022/01/24 02:25:51;;;;;;;7.75;4.93;;;;;;;5.36;81.11;103611.34;4995721;28;97556;-36
2022/01/24 02:28:18;;;;;;;12.75;5.78;;;;;;;5.32;80.70;103613.13;4994320;28;100717;-36
2022/01/24 02:33:17;;;;;;;11.43;4.18;;;;;;;5.33;80.80;103609.53;4995932;28;96740;-36
2022/01/24 02:35:42;;;;;;;10.82;4.75;;;;;;;5.21;80.65;103582.63;4995584;28;97170;-36
2022/01/24 02:38:29;;;;;;;10.85;5.30;;;;;;;5.27;80.91;103596.09;4994077;28;101269;-36
2022/01/24 02:49:06;;;;;;;14.23;4.65;;;;;;;5.20;81.53;103580.84;4995981;28;96923;-36
2022/01/24 02:51:42;;;;;;;11.85;5.05;;;;;;;5.28;81.07;103595.19;4995709;28;96516;-36
2022/01/24 02:54:21;;;;;;;9.48;4.63;;;;;;;5.17;81.05;103578.09;4993682;28;96827;-36
2022/01/24 02:56:47;;;;;;;12.68;6.60;;;;;;;5.17;80.26;103581.69;4994927;28;97934;-36
2022/01/24 02:59:14;;;;;;;7.22;4.25;;;;;;;5.27;80.56;103598.78;4993368;28;100751;-36
2022/01/24 03:01:43;;;;;;;11.13;4.47;;;;;;;5.17;80.86;103579.00;4993626;28;96774;-36
2022/01/24 03:04:09;;;;;;;9.00;4.05;;;;;;;5.15;81.30;103572.75;4994139;28;96786;-36
2022/01/24 03:06:35;;;;;;;10.60;4.72;;;;;;;5.03;81.45;103554.78;4993627;28;99000;-36
2022/01/24 03:09:01;;;;;;;8.52;5.13;;;;;;;5.25;81.07;103592.50;4993274;28;101078;-36
2022/01/24 03:11:38;;;;;;;8.90;4.72;;;;;;;5.24;81.44;103585.31;4995544;28;96442;-36
2022/01/24 03:14:03;;;;;;;11.10;6.03;;;;;;;5.24;81.13;103582.63;4995878;28;96654;-36
2022/01/24 03:16:29;;;;;;;14.88;6.63;;;;;;;5.16;80.44;103571.84;4995077;28;100227;-36
2022/01/24 03:18:54;;;;;;;11.63;5.63;;;;;;;5.11;79.49;103577.19;4993253;28;109907;-36
2022/01/24 03:21:19;;;;;;;9.90;4.70;;;;;;;5.21;80.45;103582.63;4994012;28;112791;-36
2022/01/24 03:23:45;;;;;;;9.70;5.28;;;;;;;5.22;80.85;103579.94;4994958;28;96887;-36
2022/01/24 03:26:10;;;;;;;14.10;5.15;;;;;;;5.09;80.06;103561.97;4995091;28;100411;-36
2022/01/24 03:28:35;;;;;;;10.23;4.65;;;;;;;5.03;80.22;103549.41;4994256;28;118770;-36
2022/01/24 03:31:01;;;;;;;5.72;4.03;;;;;;;5.06;79.95;103559.25;4995279;28;96541;-36
2022/01/24 03:33:26;;;;;;;9.70;4.68;;;;;;;5.14;79.21;103568.25;4992929;28;118074;-36
2022/01/24 03:35:51;;;;;;;10.88;4.43;;;;;;;5.11;79.58;103566.44;4994635;28;105648;-36
2022/01/24 03:38:16;;;;;;;12.48;6.07;;;;;;;5.09;80.43;103559.28;4994880;28;97789;-36
2022/01/24 03:40:42;;;;;;;13.15;6.65;;;;;;;5.19;80.47;103568.28;4994944;28;96654;-36
2022/01/24 03:43:08;;;;;;;9.35;4.80;;;;;;;5.01;79.39;103551.19;4994776;28;96825;-36
2022/01/24 03:45:40;;;;;;;7.68;5.22;;;;;;;5.16;80.24;103570.94;4992600;28;101001;-36
2022/01/24 03:48:11;;;;;;;8.35;3.72;;;;;;;5.16;80.78;103562.91;4993257;28;99470;-36
2022/01/24 03:50:36;;;;;;;8.52;4.88;;;;;;;5.04;79.92;103537.75;4993553;28;96510;-37
2022/01/24 03:53:04;;;;;;;6.55;4.30;;;;;;;5.18;80.51;103566.50;4994743;28;96799;-36
2022/01/24 03:55:29;;;;;;;8.57;5.05;;;;;;;5.07;80.39;103561.03;4992940;28;98787;-36
2022/01/24 03:57:55;;;;;;;11.90;4.57;;;;;;;5.15;80.15;103567.38;4994532;28;97132;-36
2022/01/24 04:00:20;;;;;;;16.38;5.95;;;;;;;5.02;80.23;103546.69;4994546;28;96588;-36
2022/01/24 04:02:45;;;;;;;8.38;4.65;;;;;;;5.19;80.90;103573.66;4993589;28;112024;-36
2022/01/24 04:05:11;;;;;;;10.80;5.20;;;;;;;5.16;80.98;103576.31;4994405;28;97941;-36
2022/01/24 04:07:36;;;;;;;11.50;5.45;;;;;;;5.10;80.56;103577.19;4996937;28;115220;-36
2022/01/24 04:10:06;;;;;;;11.23;5.05;;;;;;;5.01;80.41;103558.34;4997786;28;96474;-36
2022/01/24 04:12:35;;;;;;;10.88;5.72;;;;;;;4.98;80.46;103550.25;4996604;28;96746;-36
2022/01/24 04:15:57;;;;;;;10.40;5.72;;;;;;;5.13;80.46;103579.00;4997606;28;97940;-36
2022/01/24 04:17:47;;;;;;;12.32;4.78;;;;;;;5.13;80.17;103570.94;4992887;28;97126;-36
2022/01/24 04:22:59;;;;;;;14.00;4.97;;;;;;;5.06;79.28;103570.00;4996348;28;96577;-36
2022/01/24 04:25:25;;;;;;;13.32;7.10;;;;;;;5.10;79.82;103571.81;4996139;28;101378;-36
2022/01/24 04:27:53;;;;;;;22.35;7.28;;;;;;;5.15;79.87;103578.13;4998137;28;97829;-36
2022/01/24 04:30:19;;;;;;;11.65;5.88;;;;;;;5.17;79.42;103587.06;4996246;28;96831;-36
2022/01/24 04:32:45;;;;;;;17.50;7.15;;;;;;;5.01;79.57;103553.88;4997814;28;96727;-36
2022/01/24 04:35:10;;;;;;;16.13;7.15;;;;;;;5.01;80.19;103551.19;4996369;28;117390;-36
2022/01/24 04:37:35;;;;;;;8.65;5.38;;;;;;;5.13;79.53;103569.16;4997584;28;97812;-36
2022/01/24 04:40:01;;;;;;;16.85;8.02;;;;;;;5.11;79.84;103577.19;4996287;28;96508;-36
2022/01/24 04:42:38;;;;;;;18.65;7.15;;;;;;;5.00;80.23;103557.44;4996271;28;96571;-36
2022/01/24 04:53:32;;;;;;;11.38;5.70;;;;;;;4.97;80.56;103544.00;4997423;28;96937;-37
2022/01/24 04:55:57;;;;;;;12.38;6.15;;;;;;;4.96;80.30;103542.22;4997429;28;97973;-36
2022/01/24 04:58:22;;;;;;;15.52;8.20;;;;;;;5.07;80.54;103564.63;4996682;28;99409;-36
2022/01/24 05:00:48;;;;;;;17.98;8.00;;;;;;;5.03;80.86;103557.47;4995503;28;96630;-35
2022/01/24 05:03:13;;;;;;;14.82;8.15;;;;;;;4.95;80.86;103537.69;4995911;28;96620;-36
2022/01/24 05:05:39;;;;;;;11.10;6.00;;;;;;;4.96;81.03;103544.88;4996073;28;97972;-36
2022/01/24 05:08:06;;;;;;;12.23;7.82;;;;;;;5.00;81.04;103551.16;4995865;28;97781;-36
2022/01/24 05:10:40;;;;;;;18.33;9.05;;;;;;;5.03;80.43;103562.84;4994740;28;96750;-36
2022/01/24 05:23:48;;;;;;;15.53;6.83;;;;;;;4.99;80.81;103561.00;4994712;28;96547;-36
2022/01/24 05:26:15;;;;;;;16.92;7.90;;;;;;;5.00;81.00;103562.78;4994580;28;113592;-36
2022/01/24 05:28:40;;;;;;;23.17;8.52;;;;;;;5.01;80.41;103567.28;4994012;28;100746;-36
2022/01/24 05:31:06;;;;;;;14.05;8.27;;;;;;;4.88;80.88;103541.25;4995100;28;108210;-36
2022/01/24 05:33:31;;;;;;;19.42;7.90;;;;;;;4.86;80.64;103543.94;4995766;28;96791;-36
2022/01/24 05:35:57;;;;;;;21.13;9.32;;;;;;;4.81;80.64;103534.94;4995353;28;99422;-36
2022/01/24 05:38:22;;;;;;;17.08;7.28;;;;;;;4.96;80.26;103563.69;4993880;28;101136;-36
2022/01/24 05:40:49;;;;;;;24.10;10.35;;;;;;;4.88;80.49;103544.81;4995692;28;96535;-36
2022/01/24 05:43:14;;;;;;;19.67;8.70;;;;;;;4.85;80.57;103547.50;4994341;28;97237;-36
2022/01/24 05:45:41;;;;;;;18.13;8.52;;;;;;;4.92;80.68;103558.28;4994611;28;120036;-36
2022/01/24 05:48:07;;;;;;;16.45;7.20;;;;;;;4.90;80.50;103558.28;4995001;28;99089;-36
2022/01/24 05:50:32;;;;;;;17.08;9.98;;;;;;;4.87;80.15;103547.53;4993499;28;96739;-36
2022/01/24 05:52:57;;;;;;;20.45;9.80;;;;;;;4.72;79.66;103532.22;4995536;28;96783;-36
2022/01/24 05:55:23;;;;;;;27.83;11.70;;;;;;;4.86;80.00;103554.69;4995035;28;97360;-36
2022/01/24 05:57:48;;;;;;;17.80;7.55;;;;;;;4.77;79.95;103543.88;4994761;28;97799;-36
2022/01/24 06:00:14;;;;;;;21.15;9.45;;;;;;;4.77;80.01;103543.88;4995154;28;96472;-36
2022/01/24 06:02:40;;;;;;;17.85;8.07;;;;;;;4.78;79.55;103555.50;4956537;28;1114515;-36
2022/01/24 06:05:06;;;;;;;13.27;7.35;;;;;;;4.87;79.72;103567.22;4994611;28;100752;-36
2022/01/24 06:07:32;;;;;;;14.60;7.75;;;;;;;4.68;79.67;103533.97;4994902;28;102150;-36
2022/01/24 06:09:57;;;;;;;15.60;8.10;;;;;;;4.84;78.07;103579.75;4996259;28;96820;-36
2022/01/24 06:12:23;;;;;;;19.95;7.95;;;;;;;4.82;78.96;103576.13;4993834;28;116939;-36
2022/01/24 06:14:49;;;;;;;15.82;7.50;;;;;;;4.56;79.32;103525.84;4993959;28;100967;-36
2022/01/24 06:17:15;;;;;;;23.73;10.00;;;;;;;4.74;80.06;103557.25;4995047;28;121686;-36
2022/01/24 06:19:40;;;;;;;18.65;7.82;;;;;;;4.74;79.51;103559.94;4996284;28;96622;-36
2022/01/24 06:22:05;;;;;;;23.27;9.18;;;;;;;4.80;79.44;103576.13;4996155;28;96752;-36
2022/01/24 06:24:31;;;;;;;16.08;7.75;;;;;;;4.74;79.51;103564.44;4995970;28;97867;-36
2022/01/24 06:26:56;;;;;;;18.90;9.07;;;;;;;4.70;79.15;103573.38;4995647;28;97367;-36
2022/01/24 06:29:21;;;;;;;13.88;7.45;;;;;;;4.73;78.81;103576.97;4995256;28;96448;-36
2022/01/24 06:31:47;;;;;;;14.05;6.97;;;;;;;4.78;78.96;103588.63;4994909;28;96858;-36
2022/01/24 06:34:12;;;;;;;19.83;8.52;;;;;;;4.75;78.66;103585.94;4995723;28;97226;-36
2022/01/24 06:36:37;;;;;;;16.90;10.15;;;;;;;4.74;79.89;103583.22;4995684;28;97899;-36
2022/01/24 06:39:05;;;;;;;28.40;11.38;;;;;;;4.58;79.69;103561.66;4995216;28;96460;-36
2022/01/24 06:41:33;;;;;;;22.83;10.07;;;;;;;4.73;79.61;103593.06;4995578;28;96723;-36
2022/01/24 06:44:00;;;;;;;15.85;8.05;;;;;;;4.72;78.73;103580.56;4994171;28;97896;-36
2022/01/24 06:46:25;;;;;;;18.13;8.50;;;;;;;4.70;79.17;103587.69;4993791;28;101088;-36
2022/01/24 06:48:50;;;;;;;15.27;6.82;;;;;;;4.74;78.83;103591.28;4995832;28;96536;-36
2022/01/24 06:51:18;;;;;;;19.17;7.53;;;;;;;4.72;78.56;103583.25;4995158;28;110256;-36
2022/01/24 06:53:43;;;;;;;16.17;5.88;;;;;;;4.71;78.29;103591.28;4993849;28;100932;-36
2022/01/24 06:56:09;;;;;;;14.82;8.73;;;;;;;4.65;78.79;103582.28;4994317;28;97258;-36
2022/01/24 06:58:35;;;;;;;13.02;6.82;;;;;;;4.62;78.61;103575.97;4995313;28;99725;-36
2022/01/24 07:01:02;;;;;;;10.88;6.25;;;;;;;4.54;78.37;103567.88;4993306;28;96820;-36
2022/01/24 07:03:29;;;;;;;21.40;8.07;;;;;;;4.57;77.96;103572.38;4994277;28;98420;-36
2022/01/24 07:05:54;;;;;;;12.68;4.68;;;;;;;4.56;77.66;103573.28;4995114;28;97780;-36
2022/01/24 07:08:20;;;;;;;5.97;4.00;;;;;;;4.64;76.66;103607.31;4995424;28;96515;-36
2022/01/24 07:10:45;;;;;;;13.27;5.57;;;;;;;4.61;77.27;103595.66;4995314;28;96781;-36
2022/01/24 07:13:11;;;;;;;15.20;6.80;;;;;;;4.45;78.14;103571.38;4994942;28;98933;-36
2022/01/24 07:15:45;;;;;;;11.15;5.50;;;;;;;4.66;78.40;103597.50;4993220;28;107375;-36
2022/01/24 07:20:42;;;;;;;16.30;7.23;;;;;;;4.59;79.13;103584.91;4994827;28;96617;-36
2022/01/24 07:23:07;;;;;;;14.20;6.25;;;;;;;4.62;78.70;103597.47;4994100;28;120113;-36
2022/01/24 07:25:33;;;;;;;12.52;6.07;;;;;;;4.60;78.75;103594.78;4994563;28;98498;-36
2022/01/24 07:27:58;;;;;;;13.48;6.78;;;;;;;4.63;78.32;103600.16;4994653;28;96592;-36
2022/01/24 07:30:24;;;;;;;18.13;7.03;;;;;;;4.59;77.66;103592.97;4995265;28;96763;-36
2022/01/24 07:32:49;;;;;;;19.35;6.00;;;;;;;4.70;78.47;103613.66;4994815;28;97381;-36
2022/01/24 07:35:15;;;;;;;18.20;7.07;;;;;;;4.67;77.99;103604.69;4993387;28;100706;-36
2022/01/24 07:37:40;;;;;;;9.60;4.93;;;;;;;4.41;76.41;103571.34;4995052;28;96565;-37
2022/01/24 07:40:08;;;;;;;13.15;5.82;;;;;;;4.61;78.25;103618.03;4993855;28;116381;-36
2022/01/24 07:45:19;;;;;;;12.38;6.18;;;;;;;4.57;79.01;103601.91;4995058;28;96989;-36
2022/01/24 07:47:47;;;;;;;13.70;6.10;;;;;;;4.70;78.24;103624.38;4993380;28;96621;-36
2022/01/24 07:50:12;;;;;;;11.80;6.82;;;;;;;4.69;78.99;103631.50;4994643;28;96713;-36
2022/01/24 07:52:38;;;;;;;16.42;7.40;;;;;;;4.68;77.87;103627.94;4993850;28;98823;-36
2022/01/24 07:55:03;;;;;;;17.48;6.97;;;;;;;4.60;78.48;103618.94;4993499;28;126213;-36
2022/01/24 07:57:28;;;;;;;13.10;5.13;;;;;;;4.67;77.85;103633.28;4994722;28;96569;-36
2022/01/24 07:59:54;;;;;;;7.13;3.67;;;;;;;4.61;78.00;103627.88;4994762;28;96714;-36
2022/01/24 08:02:19;;;;;;;10.43;6.03;;;;;;;4.67;78.57;103631.53;4992324;28;98105;-36
2022/01/24 08:04:46;;;;;;;11.30;5.82;;;;;;;4.65;78.00;103629.72;4993467;28;123871;-37
2022/01/24 08:07:11;;;;;;;11.98;6.47;;;;;;;4.54;78.04;103608.13;4994329;28;96586;-37
2022/01/24 08:09:36;;;;;;;13.95;6.05;;;;;;;4.52;77.14;103607.22;4995176;28;96792;-36
2022/01/24 08:12:02;;;;;;;15.93;7.85;;;;;;;4.54;78.18;103605.44;4994315;28;98031;-36
2022/01/24 08:14:27;;;;;;;13.93;5.80;;;;;;;4.62;78.30;103625.22;4994411;28;97869;-36
2022/01/24 08:16:53;;;;;;;11.40;6.25;;;;;;;4.53;78.06;103606.34;4994204;28;96498;-36
2022/01/24 08:19:19;;;;;;;14.73;6.78;;;;;;;4.58;78.35;103617.13;4992933;28;96810;-36
2022/01/24 08:21:45;;;;;;;17.67;7.72;;;;;;;4.57;78.15;103613.53;4994105;28;98565;-36
2022/01/24 08:24:11;;;;;;;17.67;6.90;;;;;;;4.70;77.75;103643.19;4994104;28;97775;-36
2022/01/24 08:26:36;;;;;;;10.40;7.07;;;;;;;4.67;77.22;103635.97;4994584;28;96638;-36
2022/01/24 08:29:02;;;;;;;12.50;5.97;;;;;;;4.64;77.62;103639.53;4994437;28;96721;-36
2022/01/24 08:31:28;;;;;;;14.35;6.55;;;;;;;4.64;78.48;103631.47;4992452;28;100845;-36
2022/01/24 08:33:53;;;;;;;13.38;7.05;;;;;;;4.70;78.23;103636.00;4994518;28;98289;-36
2022/01/24 08:36:18;;;;;;;12.07;6.55;;;;;;;4.55;77.31;103611.72;4993482;28;112100;-36
2022/01/24 08:38:46;;;;;;;15.63;6.05;;;;;;;4.57;77.56;103623.38;4994246;28;97742;-36
2022/01/24 08:41:19;;;;;;;9.07;4.85;;;;;;;4.50;77.02;103606.31;4993314;28;97954;-36
2022/01/24 08:46:13;;;;;;;12.30;4.47;;;;;;;4.66;77.33;103636.88;4994226;28;96622;-36
2022/01/24 08:48:38;;;;;;;10.02;6.60;;;;;;;4.65;77.86;103637.78;4994011;28;96891;-36
2022/01/24 08:51:04;;;;;;;12.60;5.82;;;;;;;4.59;77.72;103618.91;4993970;28;97922;-36
2022/01/24 08:53:31;;;;;;;11.98;5.95;;;;;;;4.63;77.80;103626.13;4996818;28;97848;-36
2022/01/24 08:55:58;;;;;;;13.93;6.65;;;;;;;4.68;78.07;103646.72;4995971;28;96648;-36
2022/01/24 08:58:24;;;;;;;19.33;7.50;;;;;;;4.72;77.54;103642.31;4996094;28;96869;-36
2022/01/24 09:00:50;;;;;;;15.50;5.68;;;;;;;4.67;77.92;103631.53;4996833;28;97395;-35
2022/01/24 09:03:15;;;;;;;12.13;7.18;;;;;;;4.66;77.95;103629.72;4995028;28;100668;-36
2022/01/24 09:05:42;;;;;;;15.73;7.85;;;;;;;4.71;77.98;103626.16;4996858;28;96495;-36
2022/01/24 09:08:08;;;;;;;13.65;6.05;;;;;;;4.76;77.76;103640.53;4995866;28;96824;-36
2022/01/24 09:10:35;;;;;;;18.08;5.53;;;;;;;4.77;77.84;103636.97;4996986;28;97836;-36
2022/01/24 09:13:01;;;;;;;13.90;6.60;;;;;;;4.77;77.79;103636.97;4996620;28;98015;-36
2022/01/24 09:15:30;;;;;;;13.98;7.00;;;;;;;4.66;77.84;103627.03;4997283;28;96748;-36
2022/01/24 09:17:55;;;;;;;14.65;6.53;;;;;;;4.63;77.10;103627.00;4996277;28;108941;-36
2022/01/24 09:20:20;;;;;;;20.63;9.05;;;;;;;4.67;77.90;103642.25;4995573;28;128110;-36
2022/01/24 09:22:47;;;;;;;12.20;6.78;;;;;;;4.67;76.42;103644.94;4996986;28;99124;-36
2022/01/24 09:25:15;;;;;;;16.83;7.57;;;;;;;4.56;77.25;103627.84;4995542;28;96629;-36
2022/01/24 09:27:42;;;;;;;14.65;6.65;;;;;;;4.50;77.43;103609.00;4995500;28;96863;-36
2022/01/24 09:30:11;;;;;;;17.10;6.95;;;;;;;4.65;75.24;103640.47;4994748;28;101412;-36
2022/01/24 09:32:36;;;;;;;12.63;6.68;;;;;;;4.63;77.69;103627.00;4996276;28;97449;-36
2022/01/24 09:35:04;;;;;;;11.32;6.35;;;;;;;4.60;76.82;103616.25;4996819;28;96406;-36
2022/01/24 09:37:30;;;;;;;14.05;5.50;;;;;;;4.76;77.35;103644.09;4995404;28;96931;-36
2022/01/24 09:39:56;;;;;;;14.57;7.85;;;;;;;4.75;76.94;103641.44;4996570;28;97880;-36
2022/01/24 09:42:21;;;;;;;9.63;3.90;;;;;;;4.59;76.16;103622.50;4996541;28;97205;-36
2022/01/24 09:44:47;;;;;;;11.93;6.15;;;;;;;4.65;76.85;103641.34;4996822;28;96472;-37
2022/01/24 09:47:15;;;;;;;12.10;6.22;;;;;;;4.62;77.67;103627.91;4997131;28;96757;-36
2022/01/24 09:49:41;;;;;;;10.52;6.38;;;;;;;4.77;77.82;103648.59;4994801;28;100793;-36
2022/01/24 09:52:06;;;;;;;22.05;9.05;;;;;;;4.79;77.36;103649.53;4996587;28;97220;-36
2022/01/24 09:54:31;;;;;;;18.00;6.80;;;;;;;4.74;77.32;103640.50;4995981;28;96520;-36
2022/01/24 09:56:57;;;;;;;16.42;6.22;;;;;;;4.78;77.00;103654.88;4996393;28;96786;-36
2022/01/24 09:59:22;;;;;;;13.68;6.10;;;;;;;4.77;77.28;103650.41;4995330;28;113042;-36
2022/01/24 10:01:47;;;;;;;19.90;7.38;;;;;;;4.66;77.43;103635.06;4995078;28;97924;-36
2022/01/24 10:04:16;;;;;;;18.27;8.85;;;;;;;4.67;77.21;103630.59;4994602;28;96429;-36
2022/01/24 10:07:02;;;;;;;21.45;10.63;;;;;;;4.76;77.57;103652.16;4994795;28;96807;-36
2022/01/24 10:09:28;;;;;;;18.13;8.65;;;;;;;4.82;77.55;103656.69;4994436;28;104541;-36
2022/01/24 10:12:12;;;;;;;18.05;9.30;;;;;;;4.83;77.38;103658.47;4995973;28;99236;-36
2022/01/24 10:17:25;;;;;;;16.48;5.75;;;;;;;4.66;76.75;103639.56;4995144;28;96568;-36
2022/01/24 10:19:50;;;;;;;9.43;6.35;;;;;;;4.81;77.02;103665.63;4995513;28;97901;-36
2022/01/24 10:22:16;;;;;;;11.45;6.13;;;;;;;4.71;75.88;103644.97;4995581;28;97915;-37
2022/01/24 10:24:48;;;;;;;11.25;5.57;;;;;;;4.66;74.23;103642.25;4996071;28;96547;-36
2022/01/24 10:27:18;;;;;;;17.13;8.10;;;;;;;4.78;76.34;103665.59;4996239;28;96573;-36
2022/01/24 10:29:52;;;;;;;14.52;8.02;;;;;;;4.80;76.10;103656.69;4994164;28;100927;-36
2022/01/24 10:32:41;;;;;;;13.98;6.70;;;;;;;4.79;76.48;103662.94;4995696;28;98021;-36
2022/01/24 10:35:28;;;;;;;13.23;7.18;;;;;;;4.83;77.36;103664.75;4994453;28;96561;-36
2022/01/24 10:38:24;;;;;;;11.38;6.13;;;;;;;4.84;76.74;103666.56;4996331;28;96776;-36
2022/01/24 10:40:54;;;;;;;12.70;6.72;;;;;;;4.73;77.05;103645.88;4991710;28;102178;-36
2022/01/24 10:43:23;;;;;;;13.00;7.32;;;;;;;4.72;76.11;103641.38;4993922;28;102199;-37
2022/01/24 10:45:49;;;;;;;14.23;7.22;;;;;;;4.80;76.04;103661.16;4995113;28;97020;-36
2022/01/24 10:48:21;;;;;;;13.10;6.43;;;;;;;4.67;76.53;103633.28;4994163;28;96809;-36
2022/01/24 10:50:47;;;;;;;;;;;;;;;4.83;75.66;103651.31;4994277;28;101289;-36
2022/01/24 10:53:14;;;;;;;7.47;4.18;;;;;;;4.82;74.42;103651.31;4995539;28;97209;-36
2022/01/24 10:55:42;;;;;;;9.57;4.88;;;;;;;4.69;76.33;103628.81;4994120;28;96705;-36
2022/01/24 10:58:13;;;;;;;17.10;8.75;;;;;;;4.80;75.39;103643.25;4993995;28;96454;-36
2022/01/24 11:00:40;;;;;;;12.67;6.27;;;;;;;4.83;76.34;103640.56;4995384;28;97975;-36
2022/01/24 11:03:08;;;;;;;13.55;6.57;;;;;;;4.84;75.01;103641.50;4993322;28;100678;-36
2022/01/24 11:05:36;;;;;;;12.10;6.70;;;;;;;4.84;75.74;103642.38;4995415;28;96730;-36
2022/01/24 11:08:04;;;;;;;15.45;7.72;;;;;;;4.64;75.93;103595.69;4994034;28;96863;-36
2022/01/24 11:10:35;;;;;;;18.20;8.52;;;;;;;4.74;76.07;103602.03;4992995;28;99663;-36
2022/01/24 11:13:06;;;;;;;17.42;7.45;;;;;;;4.90;76.32;103618.25;4994931;28;97955;-36
2022/01/24 11:15:35;;;;;;;12.25;7.55;;;;;;;4.96;75.80;103628.16;4995058;28;96595;-36
2022/01/24 11:18:02;;;;;;;11.15;5.93;;;;;;;4.90;75.75;103622.72;4995139;28;96786;-36
2022/01/24 11:20:34;;;;;;;11.10;5.80;;;;;;;4.94;75.94;103627.25;4993232;28;103893;-36
2022/01/24 11:23:05;;;;;;;15.23;5.75;;;;;;;4.95;75.52;103623.66;4994929;28;97834;-36
2022/01/24 11:25:36;;;;;;;13.80;7.68;;;;;;;4.91;76.13;103608.44;4994936;28;96498;-36
2022/01/24 11:28:02;;;;;;;15.38;6.93;;;;;;;4.87;75.99;103594.06;4994022;28;96774;-36
2022/01/24 11:30:34;;;;;;;11.80;6.63;;;;;;;4.82;75.14;103584.19;4993186;28;102324;-36
2022/01/24 11:33:09;;;;;;;13.68;6.72;;;;;;;4.92;76.34;103590.53;4993422;28;100964;-36
2022/01/24 11:35:41;;;;;;;20.80;7.78;;;;;;;5.06;75.69;103615.69;4993074;28;96663;-36
2022/01/24 11:38:26;;;;;;;14.30;6.22;;;;;;;4.96;75.84;103590.56;4993495;28;96871;-36
2022/01/24 11:40:59;;;;;;;14.02;6.85;;;;;;;5.04;75.94;103602.22;4993321;28;100701;-36
2022/01/24 11:43:25;;;;;;;13.77;6.35;;;;;;;4.90;75.44;103572.59;4994376;28;99438;-36
2022/01/24 11:46:04;;;;;;;11.65;6.18;;;;;;;5.05;75.62;103603.13;4994581;28;96639;-36
2022/01/24 11:48:42;;;;;;;14.52;5.38;;;;;;;5.02;74.97;103605.78;4994759;28;96805;-36
2022/01/24 11:51:12;;;;;;;9.80;5.28;;;;;;;4.72;75.04;103560.84;4994546;28;98016;-36
2022/01/24 11:53:43;;;;;;;14.15;7.68;;;;;;;4.87;75.56;103580.63;4994644;28;99295;-36
2022/01/24 11:56:26;;;;;;;11.73;7.57;;;;;;;4.97;74.50;103602.19;4993195;28;96656;-37
2022/01/24 11:59:19;;;;;;;13.10;4.93;;;;;;;5.00;75.33;103610.25;4993216;28;96760;-36
2022/01/24 12:01:48;;;;;;;15.45;7.13;;;;;;;4.98;75.70;103602.22;4991872;28;100926;-36
2022/01/24 12:04:13;;;;;;;13.82;7.05;;;;;;;4.99;75.25;103601.31;4993998;28;97856;-36
2022/01/24 12:07:16;;;;;;;11.65;6.15;;;;;;;5.02;74.54;103598.63;4994487;28;96627;-36
2022/01/24 12:09:41;;;;;;;15.80;4.90;;;;;;;5.00;75.58;103597.72;4994738;28;96814;-36
2022/01/24 12:12:45;;;;;;;9.60;5.32;;;;;;;4.95;73.99;103596.78;4994252;28;98100;-36
2022/01/24 12:15:41;;;;;;;13.80;6.20;;;;;;;4.88;75.35;103576.16;4992813;28;100764;-36
2022/01/24 12:18:29;;;;;;;12.38;6.30;;;;;;;5.02;74.79;103598.63;4993083;28;96647;-36
2022/01/24 12:21:10;;;;;;;14.80;5.15;;;;;;;5.03;73.97;103599.53;4993441;28;96766;-36
2022/01/24 12:23:42;;;;;;;13.77;4.78;;;;;;;4.87;74.20;103571.69;4994329;28;98100;-36
2022/01/24 12:26:09;;;;;;;;;;;;;;;5.01;74.41;103595.94;4993017;28;100652;-36
2022/01/24 12:28:45;;;;;;;6.03;3.10;;;;;;;4.92;75.11;103569.03;4997103;28;96699;-36
2022/01/24 12:31:17;;;;;;;11.32;6.15;;;;;;;5.08;74.76;103603.16;4996501;28;96680;-36
2022/01/24 12:33:50;;;;;;;16.90;8.37;;;;;;;4.93;75.89;103574.38;4997475;28;97945;-37
2022/01/24 12:36:16;;;;;;;17.65;6.68;;;;;;;5.06;75.74;103592.41;4996089;28;100709;-37
2022/01/24 12:38:48;;;;;;;16.02;8.75;;;;;;;4.86;72.42;103560.06;4997872;28;96556;-36
2022/01/24 12:41:38;;;;;;;16.15;7.45;;;;;;;5.04;74.57;103591.47;4979823;28;96842;-36
2022/01/24 12:46:32;;;;;;;13.15;5.18;;;;;;;5.07;75.02;103580.75;4997741;28;97476;-36
2022/01/24 12:49:04;;;;;;;15.52;7.43;;;;;;;5.10;75.40;103580.78;4996171;28;96527;-36
2022/01/24 12:51:33;;;;;;;9.43;5.65;;;;;;;5.00;74.97;103557.44;4996046;28;96780;-36
2022/01/24 12:53:58;;;;;;;14.82;6.93;;;;;;;4.99;75.91;103571.75;4995383;28;101005;-36
2022/01/24 12:56:30;;;;;;;15.95;6.90;;;;;;;5.14;75.46;103586.16;4996968;28;98782;-36
2022/01/24 12:58:56;;;;;;;18.60;9.43;;;;;;;5.18;75.37;103583.50;4995765;28;96947;-36
2022/01/24 13:01:24;;;;;;;18.63;6.45;;;;;;;5.06;75.65;103564.63;4995313;28;101498;-36
2022/01/24 13:03:57;;;;;;;11.10;5.70;;;;;;;5.01;75.00;103548.50;4996452;28;99547;-36
2022/01/24 13:06:25;;;;;;;11.60;5.88;;;;;;;5.04;75.42;103545.81;4997074;28;96937;-36
2022/01/24 13:09:10;;;;;;;12.70;6.28;;;;;;;5.11;74.68;103555.69;4997151;28;96508;-36
2022/01/24 13:11:45;;;;;;;14.85;6.18;;;;;;;5.02;74.93;103544.00;4996769;28;100122;-36